SLVR/VVI METAR and TAF weather

Enter ICAO airport designator
Station Type Date Time Source
SLVR METAR 2020/04/02 03:00 UTC NOAA

SLVR 020300Z 30005KT 9999 NSC 26/23 Q1013


Station Type Date Time Source
SLVR Decoded METAR 2020/04/02 03:00 UTC NOAA

Viru-Viru, Bolivia (SLVR) 17-38S 063-08W
Apr 01, 2020 - 11:00 PM EDT / 2020.04.02 0300 UTC
Wind: from the WNW (300 degrees) at 6 MPH (5 KT):0
Visibility: greater than 7 mile(s):0
Temperature: 78 F (26 C)
Dew Point: 73 F (23 C)
Relative Humidity: 83%
Pressure (altimeter): 29.91 in. Hg (1013 hPa)
ob: SLVR 020300Z 30005KT 9999 NSC 26/23 Q1013
cycle: 3

Station Type Date Time Source
SLVR TAF 2020/04/01 18:55 UTC NOAA

TAF SLVR 011650Z 0118/0218 34010KT 9999 SCT020 FEW027TCU TX34/0120Z TN23/0210Z
BECMG 0123/0203 34004KT NSC
BECMG 0206/0208 VRB02KT SCT017 SCT080
BECMG 0215/0217 35010KT SCT020 FEW027TCU

Example: see airport list